Terminal Aerodrome Forecast
Issued by NWS Goodland, KS

Current Version | Previous Version | Text Only | Print | Product List | Glossary On
Versions: 1 2 3 4 5 6 7 8 9 10 11 12
000
FTUS43 KGLD 252351
TAFGLD
TAF
KGLD 252351Z 2600/2624 16007KT P6SM SKC
     FM261400 30011KT P6SM SCT300=

USA.gov is the U.S. government's official web portal to all federal, state and local government web resources and services.